sensor_id;sensor_type;location;lat;lon;timestamp;pressure;altitude;pressure_sealevel;temperature;humidity
78123;BME280;67376;44.802;10.332;2023-02-12T00:01:08;102683.81;;;15.53;30.32
78123;BME280;67376;44.802;10.332;2023-02-12T00:03:33;102682.81;;;15.55;30.93
78123;BME280;67376;44.802;10.332;2023-02-12T00:06:02;102679.00;;;15.57;30.70
78123;BME280;67376;44.802;10.332;2023-02-12T00:08:27;102669.50;;;15.53;30.75
78123;BME280;67376;44.802;10.332;2023-02-12T00:10:53;102667.81;;;15.52;30.15
78123;BME280;67376;44.802;10.332;2023-02-12T00:13:18;102664.81;;;15.55;31.14
78123;BME280;67376;44.802;10.332;2023-02-12T00:15:44;102670.91;;;15.57;29.96
78123;BME280;67376;44.802;10.332;2023-02-12T00:18:09;102669.19;;;15.56;30.33
78123;BME280;67376;44.802;10.332;2023-02-12T00:20:38;102675.59;;;15.55;29.66
78123;BME280;67376;44.802;10.332;2023-02-12T00:23:04;102672.78;;;15.57;30.12
78123;BME280;67376;44.802;10.332;2023-02-12T00:25:30;102666.13;;;15.51;30.37
78123;BME280;67376;44.802;10.332;2023-02-12T00:27:55;102667.13;;;15.50;30.58
78123;BME280;67376;44.802;10.332;2023-02-12T00:30:21;102672.50;;;15.50;29.84
78123;BME280;67376;44.802;10.332;2023-02-12T00:32:46;102680.13;;;15.55;30.38
78123;BME280;67376;44.802;10.332;2023-02-12T00:35:12;102669.13;;;15.48;30.16
78123;BME280;67376;44.802;10.332;2023-02-12T00:37:37;102669.66;;;15.51;29.90
78123;BME280;67376;44.802;10.332;2023-02-12T00:40:04;102661.44;;;15.53;29.82
78123;BME280;67376;44.802;10.332;2023-02-12T00:42:29;102664.13;;;15.53;30.31
78123;BME280;67376;44.802;10.332;2023-02-12T00:44:55;102646.53;;;15.41;30.02
78123;BME280;67376;44.802;10.332;2023-02-12T00:47:20;102666.13;;;15.51;29.86
78123;BME280;67376;44.802;10.332;2023-02-12T00:49:45;102666.97;;;15.51;29.69
78123;BME280;67376;44.802;10.332;2023-02-12T00:52:11;102671.50;;;15.51;29.53
78123;BME280;67376;44.802;10.332;2023-02-12T00:54:36;102667.97;;;15.50;29.68
78123;BME280;67376;44.802;10.332;2023-02-12T00:57:02;102670.81;;;15.49;30.47
78123;BME280;67376;44.802;10.332;2023-02-12T00:59:27;102671.13;;;15.46;30.39
78123;BME280;67376;44.802;10.332;2023-02-12T01:01:54;102679.75;;;15.49;30.57
78123;BME280;67376;44.802;10.332;2023-02-12T01:04:19;102672.34;;;15.51;30.41
78123;BME280;67376;44.802;10.332;2023-02-12T01:06:45;102674.50;;;15.48;30.52
78123;BME280;67376;44.802;10.332;2023-02-12T01:09:11;102670.97;;;15.47;30.34
78123;BME280;67376;44.802;10.332;2023-02-12T01:11:36;102675.19;;;15.50;30.23
78123;BME280;67376;44.802;10.332;2023-02-12T01:14:02;102674.34;;;15.49;30.75
78123;BME280;67376;44.802;10.332;2023-02-12T01:16:28;102683.97;;;15.52;30.47
78123;BME280;67376;44.802;10.332;2023-02-12T01:18:55;102676.06;;;15.50;30.30
78123;BME280;67376;44.802;10.332;2023-02-12T01:21:30;102666.59;;;15.46;30.20
78123;BME280;67376;44.802;10.332;2023-02-12T01:23:57;102671.97;;;15.46;29.87
78123;BME280;67376;44.802;10.332;2023-02-12T01:26:22;102673.50;;;15.49;30.59
78123;BME280;67376;44.802;10.332;2023-02-12T01:28:50;102673.19;;;15.52;29.37
78123;BME280;67376;44.802;10.332;2023-02-12T01:31:22;102677.75;;;15.51;30.61
78123;BME280;67376;44.802;10.332;2023-02-12T01:33:49;102674.22;;;15.51;30.14
78123;BME280;67376;44.802;10.332;2023-02-12T01:36:15;102676.19;;;15.49;29.85
78123;BME280;67376;44.802;10.332;2023-02-12T01:38:40;102677.06;;;15.49;29.70
78123;BME280;67376;44.802;10.332;2023-02-12T01:41:09;102675.19;;;15.50;30.34
78123;BME280;67376;44.802;10.332;2023-02-12T01:43:36;102667.59;;;15.45;29.81
78123;BME280;67376;44.802;10.332;2023-02-12T01:46:02;102677.06;;;15.49;30.27
78123;BME280;67376;44.802;10.332;2023-02-12T01:48:33;102680.91;;;15.47;30.66
78123;BME280;67376;44.802;10.332;2023-02-12T01:51:01;102674.50;;;15.48;30.46
78123;BME280;67376;44.802;10.332;2023-02-12T01:53:32;102671.81;;;15.48;30.38
78123;BME280;67376;44.802;10.332;2023-02-12T01:56:01;102656.28;;;15.42;30.04
78123;BME280;67376;44.802;10.332;2023-02-12T01:58:30;102657.53;;;15.47;30.72
78123;BME280;67376;44.802;10.332;2023-02-12T02:00:58;102657.22;;;15.50;29.75
78123;BME280;67376;44.802;10.332;2023-02-12T02:03:24;102647.91;;;15.45;30.58
78123;BME280;67376;44.802;10.332;2023-02-12T02:06:12;102652.75;;;15.41;30.69
78123;BME280;67376;44.802;10.332;2023-02-12T02:08:40;102651.44;;;15.45;29.96
78123;BME280;67376;44.802;10.332;2023-02-12T02:11:06;102646.91;;;15.46;29.70
78123;BME280;67376;44.802;10.332;2023-02-12T02:13:52;102647.75;;;15.46;29.69
78123;BME280;67376;44.802;10.332;2023-02-12T02:16:41;102630.06;;;15.44;30.82
78123;BME280;67376;44.802;10.332;2023-02-12T02:22:17;102630.59;;;15.47;30.08
78123;BME280;67376;44.802;10.332;2023-02-12T02:25:18;102624.84;;;15.42;30.11
78123;BME280;67376;44.802;10.332;2023-02-12T02:35:48;102621.00;;;15.45;30.07
78123;BME280;67376;44.802;10.332;2023-02-12T02:38:26;102627.22;;;15.45;30.24
78123;BME280;67376;44.802;10.332;2023-02-12T02:41:03;102626.53;;;15.43;30.61
78123;BME280;67376;44.802;10.332;2023-02-12T02:43:50;102622.47;;;15.39;30.01
78123;BME280;67376;44.802;10.332;2023-02-12T02:46:29;102620.78;;;15.38;30.31
78123;BME280;67376;44.802;10.332;2023-02-12T02:48:59;102616.63;;;15.44;29.92
78123;BME280;67376;44.802;10.332;2023-02-12T02:51:32;102610.38;;;15.43;29.43
78123;BME280;67376;44.802;10.332;2023-02-12T02:56:37;102615.06;;;15.41;30.03
78123;BME280;67376;44.802;10.332;2023-02-12T02:59:17;102607.84;;;15.42;30.97
78123;BME280;67376;44.802;10.332;2023-02-12T03:01:51;102599.56;;;15.35;30.54
78123;BME280;67376;44.802;10.332;2023-02-12T03:04:22;102604.31;;;15.41;29.90
78123;BME280;67376;44.802;10.332;2023-02-12T03:07:08;102604.63;;;15.38;30.04
78123;BME280;67376;44.802;10.332;2023-02-12T03:09:42;102606.31;;;15.39;30.60
78123;BME280;67376;44.802;10.332;2023-02-12T03:12:13;102598.72;;;15.35;30.19
78123;BME280;67376;44.802;10.332;2023-02-12T03:14:51;102602.63;;;15.40;30.40
78123;BME280;67376;44.802;10.332;2023-02-12T03:17:27;102593.69;;;15.40;30.97
78123;BME280;67376;44.802;10.332;2023-02-12T03:19:59;102598.09;;;15.41;30.44
78123;BME280;67376;44.802;10.332;2023-02-12T03:22:30;102598.09;;;15.41;30.37
78123;BME280;67376;44.802;10.332;2023-02-12T03:25:12;102603.63;;;15.39;29.90
78123;BME280;67376;44.802;10.332;2023-02-12T03:27:45;102594.19;;;15.35;30.18
78123;BME280;67376;44.802;10.332;2023-02-12T03:30:12;102596.94;;;15.43;29.35
78123;BME280;67376;44.802;10.332;2023-02-12T03:35:34;102598.72;;;15.35;30.74
78123;BME280;67376;44.802;10.332;2023-02-12T03:38:19;102586.09;;;15.35;30.29
78123;BME280;67376;44.802;10.332;2023-02-12T03:41:10;102583.72;;;15.32;29.64
78123;BME280;67376;44.802;10.332;2023-02-12T03:46:40;102590.78;;;15.33;30.21
78123;BME280;67376;44.802;10.332;2023-02-12T03:49:29;102601.56;;;15.33;29.42
78123;BME280;67376;44.802;10.332;2023-02-12T03:51:56;102595.88;;;15.36;29.76
78123;BME280;67376;44.802;10.332;2023-02-12T03:54:23;102593.88;;;15.38;30.28
78123;BME280;67376;44.802;10.332;2023-02-12T03:57:02;102587.94;;;15.35;29.96
78123;BME280;67376;44.802;10.332;2023-02-12T03:59:30;102586.25;;;15.34;30.11
78123;BME280;67376;44.802;10.332;2023-02-12T04:01:58;102575.66;;;15.32;29.95
78123;BME280;67376;44.802;10.332;2023-02-12T04:04:24;102588.09;;;15.33;29.53
78123;BME280;67376;44.802;10.332;2023-02-12T04:06:51;102585.41;;;15.33;30.70
78123;BME280;67376;44.802;10.332;2023-02-12T04:09:18;102588.09;;;15.33;30.98
78123;BME280;67376;44.802;10.332;2023-02-12T04:17:58;102591.63;;;15.34;30.14
78123;BME280;67376;44.802;10.332;2023-02-12T04:20:39;102587.94;;;15.35;29.93
78123;BME280;67376;44.802;10.332;2023-02-12T04:26:24;102587.72;;;15.28;30.04
78123;BME280;67376;44.802;10.332;2023-02-12T04:31:54;102583.03;;;15.30;30.19
78123;BME280;67376;44.802;10.332;2023-02-12T04:37:30;102578.97;;;15.26;29.86
78123;BME280;67376;44.802;10.332;2023-02-12T04:39:53;102572.59;;;15.27;29.55
78123;BME280;67376;44.802;10.332;2023-02-12T04:42:19;102559.91;;;15.19;29.61
78123;BME280;67376;44.802;10.332;2023-02-12T04:44:44;102574.28;;;15.28;30.66
78123;BME280;67376;44.802;10.332;2023-02-12T04:47:14;102589.41;;;15.29;30.00
78123;BME280;67376;44.802;10.332;2023-02-12T04:49:40;102585.56;;;15.32;30.97
78123;BME280;67376;44.802;10.332;2023-02-12T04:52:06;102580.34;;;15.30;30.34
78123;BME280;67376;44.802;10.332;2023-02-12T04:54:32;102576.13;;;15.28;30.47
78123;BME280;67376;44.802;10.332;2023-02-12T04:56:58;102554.84;;;15.16;29.66
78123;BME280;67376;44.802;10.332;2023-02-12T04:59:24;102576.44;;;15.25;30.73
78123;BME280;67376;44.802;10.332;2023-02-12T05:01:49;102578.34;;;15.32;30.23
78123;BME280;67376;44.802;10.332;2023-02-12T05:04:16;102588.09;;;15.33;30.24
78123;BME280;67376;44.802;10.332;2023-02-12T05:06:43;102579.66;;;15.28;29.92
78123;BME280;67376;44.802;10.332;2023-02-12T05:09:12;102579.50;;;15.30;29.97
78123;BME280;67376;44.802;10.332;2023-02-12T05:11:38;102581.50;;;15.28;30.26
78123;BME280;67376;44.802;10.332;2023-02-12T05:14:04;102585.56;;;15.32;29.59
78123;BME280;67376;44.802;10.332;2023-02-12T05:16:29;102584.34;;;15.26;30.10
78123;BME280;67376;44.802;10.332;2023-02-12T05:18:55;102589.56;;;15.28;29.44
78123;BME280;67376;44.802;10.332;2023-02-12T05:21:20;102586.88;;;15.28;29.86
78123;BME280;67376;44.802;10.332;2023-02-12T05:23:46;102584.19;;;15.28;29.66
78123;BME280;67376;44.802;10.332;2023-02-12T05:26:16;102572.59;;;15.27;30.10
78123;BME280;67376;44.802;10.332;2023-02-12T05:28:42;102570.06;;;15.26;29.83
78123;BME280;67376;44.802;10.332;2023-02-12T05:31:13;102580.66;;;15.27;29.26
78123;BME280;67376;44.802;10.332;2023-02-12T05:33:41;102585.19;;;15.27;30.41
78123;BME280;67376;44.802;10.332;2023-02-12T05:36:10;102583.19;;;15.29;30.68
78123;BME280;67376;44.802;10.332;2023-02-12T05:38:35;102584.03;;;15.29;29.55
78123;BME280;67376;44.802;10.332;2023-02-12T05:41:09;102578.97;;;15.26;30.03
78123;BME280;67376;44.802;10.332;2023-02-12T05:43:35;102581.13;;;15.23;29.72
78123;BME280;67376;44.802;10.332;2023-02-12T05:46:02;102583.50;;;15.26;29.77
78123;BME280;67376;44.802;10.332;2023-02-12T05:48:29;102581.81;;;15.25;30.75
78123;BME280;67376;44.802;10.332;2023-02-12T05:51:03;102580.66;;;15.27;29.77
78123;BME280;67376;44.802;10.332;2023-02-12T05:53:29;102585.66;;;15.22;30.11
78123;BME280;67376;44.802;10.332;2023-02-12T05:56:14;102578.97;;;15.26;30.65
78123;BME280;67376;44.802;10.332;2023-02-12T05:58:41;102584.50;;;15.25;29.30
78123;BME280;67376;44.802;10.332;2023-02-12T06:01:28;102590.56;;;15.27;29.94
78123;BME280;67376;44.802;10.332;2023-02-12T06:03:54;102583.81;;;15.23;29.58
78123;BME280;67376;44.802;10.332;2023-02-12T06:06:19;102578.59;;;15.21;30.33
78123;BME280;67376;44.802;10.332;2023-02-12T06:08:48;102571.38;;;15.22;29.66
78123;BME280;67376;44.802;10.332;2023-02-12T06:11:15;102583.50;;;15.26;29.72
78123;BME280;67376;44.802;10.332;2023-02-12T06:13:41;102581.81;;;15.25;29.44
78123;BME280;67376;44.802;10.332;2023-02-12T06:18:41;102576.91;;;15.20;29.99
78123;BME280;67376;44.802;10.332;2023-02-12T06:21:07;102573.22;;;15.21;29.52
78123;BME280;67376;44.802;10.332;2023-02-12T06:23:32;102575.22;;;15.19;29.67
78123;BME280;67376;44.802;10.332;2023-02-12T06:25:57;102584.97;;;15.20;30.13
78123;BME280;67376;44.802;10.332;2023-02-12T06:28:23;102587.34;;;15.23;29.54
78123;BME280;67376;44.802;10.332;2023-02-12T06:30:49;102606.81;;;15.17;30.22
78123;BME280;67376;44.802;10.332;2023-02-12T06:33:14;102609.34;;;15.18;30.58
78123;BME280;67376;44.802;10.332;2023-02-12T06:35:39;102601.66;;;15.24;30.33
78123;BME280;67376;44.802;10.332;2023-02-12T06:38:05;102593.88;;;15.20;29.13
78123;BME280;67376;44.802;10.332;2023-02-12T06:40:31;102592.03;;;15.21;30.12
78123;BME280;67376;44.802;10.332;2023-02-12T06:42:56;102587.34;;;15.23;29.89
78123;BME280;67376;44.802;10.332;2023-02-12T06:45:22;102598.72;;;15.17;30.28
78123;BME280;67376;44.802;10.332;2023-02-12T06:47:47;102601.81;;;15.22;30.32
78123;BME280;67376;44.802;10.332;2023-02-12T06:50:13;102610.19;;;15.19;30.40
78123;BME280;67376;44.802;10.332;2023-02-12T06:52:38;102612.41;;;15.24;29.98
78123;BME280;67376;44.802;10.332;2023-02-12T06:55:03;102611.41;;;15.25;29.91
78123;BME280;67376;44.802;10.332;2023-02-12T06:57:29;102616.09;;;15.23;29.91
78123;BME280;67376;44.802;10.332;2023-02-12T06:59:55;102618.25;;;15.19;29.99
78123;BME280;67376;44.802;10.332;2023-02-12T07:02:20;102627.25;;;15.28;30.43
78123;BME280;67376;44.802;10.332;2023-02-12T07:04:46;102623.19;;;15.24;30.69
78123;BME280;67376;44.802;10.332;2023-02-12T07:07:11;102622.88;;;15.27;29.42
78123;BME280;67376;44.802;10.332;2023-02-12T07:09:37;102629.25;;;15.26;29.97
78123;BME280;67376;44.802;10.332;2023-02-12T07:12:02;102631.41;;;15.22;29.35
78123;BME280;67376;44.802;10.332;2023-02-12T07:14:28;102634.41;;;15.19;30.63
78123;BME280;67376;44.802;10.332;2023-02-12T07:16:54;102645.22;;;15.27;29.35
78123;BME280;67376;44.802;10.332;2023-02-12T07:19:21;102637.41;;;15.16;30.03
78123;BME280;67376;44.802;10.332;2023-02-12T07:21:46;102651.94;;;15.23;29.61
78123;BME280;67376;44.802;10.332;2023-02-12T07:24:13;102635.41;;;15.18;30.00
78123;BME280;67376;44.802;10.332;2023-02-12T07:26:39;102647.09;;;15.27;30.35
78123;BME280;67376;44.802;10.332;2023-02-12T07:29:04;102643.53;;;15.26;28.90
78123;BME280;67376;44.802;10.332;2023-02-12T07:31:30;102644.53;;;15.25;30.11
78123;BME280;67376;44.802;10.332;2023-02-12T07:33:57;102640.09;;;15.16;30.17
78123;BME280;67376;44.802;10.332;2023-02-12T07:36:24;102648.22;;;15.24;29.43
78123;BME280;67376;44.802;10.332;2023-02-12T07:38:50;102655.16;;;15.27;29.40
78123;BME280;67376;44.802;10.332;2023-02-12T07:41:34;102652.38;;;15.18;30.23
78123;BME280;67376;44.802;10.332;2023-02-12T07:44:06;102660.69;;;15.25;29.48
78123;BME280;67376;44.802;10.332;2023-02-12T07:46:35;102658.00;;;15.25;29.57
78123;BME280;67376;44.802;10.332;2023-02-12T07:49:03;102642.78;;;15.16;29.09
78123;BME280;67376;44.802;10.332;2023-02-12T07:51:30;102654.78;;;15.22;30.24
78123;BME280;67376;44.802;10.332;2023-02-12T07:54:00;102658.31;;;15.22;29.64
78123;BME280;67376;44.802;10.332;2023-02-12T07:56:27;102665.53;;;15.22;29.51
78123;BME280;67376;44.802;10.332;2023-02-12T07:58:55;102658.47;;;15.20;29.32
78123;BME280;67376;44.802;10.332;2023-02-12T08:01:27;102659.16;;;15.23;29.00
78123;BME280;67376;44.802;10.332;2023-02-12T08:03:56;102662.84;;;15.22;29.94
78123;BME280;67376;44.802;10.332;2023-02-12T08:06:24;102660.31;;;15.20;30.57
78123;BME280;67376;44.802;10.332;2023-02-12T08:08:55;102664.53;;;15.23;29.94
78123;BME280;67376;44.802;10.332;2023-02-12T08:11:21;102667.22;;;15.23;29.09
78123;BME280;67376;44.802;10.332;2023-02-12T08:13:47;102665.38;;;15.23;30.06
78123;BME280;67376;44.802;10.332;2023-02-12T08:16:18;102668.75;;;15.25;29.85
78123;BME280;67376;44.802;10.332;2023-02-12T08:18:44;102670.59;;;15.25;29.38
78123;BME280;67376;44.802;10.332;2023-02-12T08:21:15;102672.59;;;15.23;30.06
78123;BME280;67376;44.802;10.332;2023-02-12T08:23:42;102672.28;;;15.26;29.49
78123;BME280;67376;44.802;10.332;2023-02-12T08:26:12;102676.00;;;15.25;29.78
78123;BME280;67376;44.802;10.332;2023-02-12T08:28:42;102679.84;;;15.22;30.32
78123;BME280;67376;44.802;10.332;2023-02-12T08:31:11;102692.44;;;15.22;29.59
78123;BME280;67376;44.802;10.332;2023-02-12T08:33:36;102693.81;;;15.26;29.61
78123;BME280;67376;44.802;10.332;2023-02-12T08:36:05;102706.59;;;15.24;28.77
78123;BME280;67376;44.802;10.332;2023-02-12T08:38:31;102701.91;;;15.26;29.43
78123;BME280;67376;44.802;10.332;2023-02-12T08:41:06;102698.38;;;15.25;29.37
78123;BME280;67376;44.802;10.332;2023-02-12T08:43:32;102695.13;;;15.22;29.74
78123;BME280;67376;44.802;10.332;2023-02-12T08:46:02;102701.34;;;15.22;30.16
78123;BME280;67376;44.802;10.332;2023-02-12T08:48:28;102709.81;;;15.27;30.15
78123;BME280;67376;44.802;10.332;2023-02-12T08:50:53;102722.56;;;15.25;29.17
78123;BME280;67376;44.802;10.332;2023-02-12T08:53:19;102731.66;;;15.24;30.05
78123;BME280;67376;44.802;10.332;2023-02-12T08:55:48;102733.34;;;15.25;29.51
78123;BME280;67376;44.802;10.332;2023-02-12T08:58:14;102742.09;;;15.27;29.03
78123;BME280;67376;44.802;10.332;2023-02-12T09:00:39;102753.03;;;15.26;29.89
78123;BME280;67376;44.802;10.332;2023-02-12T09:03:05;102744.94;;;15.26;28.81
78123;BME280;67376;44.802;10.332;2023-02-12T09:05:30;102754.03;;;15.25;29.56
78123;BME280;67376;44.802;10.332;2023-02-12T09:07:56;102748.78;;;15.23;30.43
78123;BME280;67376;44.802;10.332;2023-02-12T09:10:21;102753.16;;;15.24;29.64
78123;BME280;67376;44.802;10.332;2023-02-12T09:12:46;102751.88;;;15.28;29.72
78123;BME280;67376;44.802;10.332;2023-02-12T09:15:12;102756.56;;;15.26;30.09
78123;BME280;67376;44.802;10.332;2023-02-12T09:17:38;102757.56;;;15.25;29.32
78123;BME280;67376;44.802;10.332;2023-02-12T09:20:06;102742.88;;;15.19;30.10
78123;BME280;67376;44.802;10.332;2023-02-12T09:22:31;102750.88;;;15.29;30.45
78123;BME280;67376;44.802;10.332;2023-02-12T09:24:57;102750.88;;;15.29;29.51
78123;BME280;67376;44.802;10.332;2023-02-12T09:27:22;102754.09;;;15.33;28.74
78123;BME280;67376;44.802;10.332;2023-02-12T09:29:47;102758.94;;;15.29;30.48
78123;BME280;67376;44.802;10.332;2023-02-12T09:32:13;102772.25;;;15.31;29.66
78123;BME280;67376;44.802;10.332;2023-02-12T09:34:38;102769.16;;;15.26;29.43
78123;BME280;67376;44.802;10.332;2023-02-12T09:37:03;102761.94;;;15.26;29.71
78123;BME280;67376;44.802;10.332;2023-02-12T09:39:29;102759.09;;;15.28;29.84
78123;BME280;67376;44.802;10.332;2023-02-12T09:42:08;102760.78;;;15.29;29.38
78123;BME280;67376;44.802;10.332;2023-02-12T09:44:56;102756.41;;;15.28;29.72
78123;BME280;67376;44.802;10.332;2023-02-12T09:47:37;102755.72;;;15.26;30.04
78123;BME280;67376;44.802;10.332;2023-02-12T09:53:11;102771.72;;;15.27;29.15
78123;BME280;67376;44.802;10.332;2023-02-12T09:55:39;102766.63;;;15.24;30.06
78123;BME280;67376;44.802;10.332;2023-02-12T09:58:11;102785.69;;;15.31;30.33
78123;BME280;67376;44.802;10.332;2023-02-12T10:00:38;102771.00;;;15.25;30.52
78123;BME280;67376;44.802;10.332;2023-02-12T10:03:11;102772.00;;;15.24;29.04
78123;BME280;67376;44.802;10.332;2023-02-12T10:06:06;102771.00;;;15.25;29.33
78123;BME280;67376;44.802;10.332;2023-02-12T10:20:04;102754.88;;;15.25;29.61
78123;BME280;67376;44.802;10.332;2023-02-12T10:27:47;102751.88;;;15.28;29.94
78123;BME280;67376;44.802;10.332;2023-02-12T10:30:18;102739.72;;;15.24;30.08
78123;BME280;67376;44.802;10.332;2023-02-12T10:32:46;102751.41;;;15.33;30.35
78123;BME280;67376;44.802;10.332;2023-02-12T10:35:16;102755.09;;;15.32;29.15
78123;BME280;67376;44.802;10.332;2023-02-12T10:37:48;102747.50;;;15.27;29.29
78123;BME280;67376;44.802;10.332;2023-02-12T10:40:25;102755.09;;;15.32;30.43
78123;BME280;67376;44.802;10.332;2023-02-12T10:42:55;102745.88;;;15.34;29.40
78123;BME280;67376;44.802;10.332;2023-02-12T10:45:30;102746.19;;;15.31;29.72
78123;BME280;67376;44.802;10.332;2023-02-12T10:48:08;102737.25;;;15.31;30.65
78123;BME280;67376;44.802;10.332;2023-02-12T10:50:40;102746.34;;;15.30;30.45
78123;BME280;67376;44.802;10.332;2023-02-12T10:53:15;102741.34;;;15.35;30.76
78123;BME280;67376;44.802;10.332;2023-02-12T10:55:42;102733.88;;;15.29;29.81
78123;BME280;67376;44.802;10.332;2023-02-12T10:58:18;102714.88;;;15.30;30.15
78123;BME280;67376;44.802;10.332;2023-02-12T11:00:43;102708.34;;;15.33;29.98
78123;BME280;67376;44.802;10.332;2023-02-12T11:05:43;102711.19;;;15.31;30.47
78123;BME280;67376;44.802;10.332;2023-02-12T11:08:28;102707.50;;;15.32;30.65
78123;BME280;67376;44.802;10.332;2023-02-12T11:10:54;102710.91;;;15.34;30.54
78123;BME280;67376;44.802;10.332;2023-02-12T11:13:25;102706.81;;;15.30;30.62
78123;BME280;67376;44.802;10.332;2023-02-12T11:15:51;102706.50;;;15.33;30.43
78123;BME280;67376;44.802;10.332;2023-02-12T11:18:22;102702.28;;;15.31;30.11
78123;BME280;67376;44.802;10.332;2023-02-12T11:20:52;102699.13;;;15.35;30.43
78123;BME280;67376;44.802;10.332;2023-02-12T11:23:33;102696.75;;;15.32;29.99
78123;BME280;67376;44.802;10.332;2023-02-12T11:31:29;102679.44;;;15.35;31.07
78123;BME280;67376;44.802;10.332;2023-02-12T11:34:15;102677.59;;;15.35;30.22
78123;BME280;67376;44.802;10.332;2023-02-12T11:36:46;102681.97;;;15.36;29.93
78123;BME280;67376;44.802;10.332;2023-02-12T11:41:51;102680.28;;;15.35;30.17
78123;BME280;67376;44.802;10.332;2023-02-12T11:47:21;102673.44;;;15.41;30.83
78123;BME280;67376;44.802;10.332;2023-02-12T11:49:51;102669.75;;;15.42;30.51
78123;BME280;67376;44.802;10.332;2023-02-12T11:52:27;102666.84;;;15.35;30.96
78123;BME280;67376;44.802;10.332;2023-02-12T11:54:59;102667.84;;;15.34;30.42
78123;BME280;67376;44.802;10.332;2023-02-12T11:57:38;102658.75;;;15.35;30.71
78123;BME280;67376;44.802;10.332;2023-02-12T12:00:24;102658.75;;;15.35;31.14
78123;BME280;67376;44.802;10.332;2023-02-12T12:03:03;102670.53;;;15.34;30.54
78123;BME280;67376;44.802;10.332;2023-02-12T12:05:39;102661.44;;;15.35;30.89
78123;BME280;67376;44.802;10.332;2023-02-12T12:08:19;102669.00;;;15.32;30.86
78123;BME280;67376;44.802;10.332;2023-02-12T12:11:11;102671.59;;;15.41;31.11
78123;BME280;67376;44.802;10.332;2023-02-12T12:13:46;102668.38;;;15.38;31.07
78123;BME280;67376;44.802;10.332;2023-02-12T12:16:19;102662.31;;;15.36;29.87
78123;BME280;67376;44.802;10.332;2023-02-12T12:19:12;102662.00;;;15.39;30.81
78123;BME280;67376;44.802;10.332;2023-02-12T12:27:14;102670.91;;;15.39;31.06
78123;BME280;67376;44.802;10.332;2023-02-12T12:30:07;102660.00;;;15.41;30.27
78123;BME280;67376;44.802;10.332;2023-02-12T12:32:36;102650.69;;;15.35;30.33
78123;BME280;67376;44.802;10.332;2023-02-12T12:35:09;102654.75;;;15.39;30.90
78123;BME280;67376;44.802;10.332;2023-02-12T12:37:36;102659.00;;;15.42;31.00
78123;BME280;67376;44.802;10.332;2023-02-12T12:40:26;102661.16;;;15.38;31.13
78123;BME280;67376;44.802;10.332;2023-02-12T12:43:13;102653.28;;;15.45;30.36
78123;BME280;67376;44.802;10.332;2023-02-12T12:51:19;102662.53;;;15.42;30.88
78123;BME280;67376;44.802;10.332;2023-02-12T12:54:23;102662.06;;;15.47;30.19
78123;BME280;67376;44.802;10.332;2023-02-12T13:10:32;102665.53;;;15.39;30.68
78123;BME280;67376;44.802;10.332;2023-02-12T13:13:37;102666.06;;;15.43;31.06
78123;BME280;67376;44.802;10.332;2023-02-12T13:16:39;102672.81;;;15.47;31.25
78123;BME280;67376;44.802;10.332;2023-02-12T13:22:09;102664.22;;;15.43;30.67
78123;BME280;67376;44.802;10.332;2023-02-12T13:24:49;102663.22;;;15.44;30.81
78123;BME280;67376;44.802;10.332;2023-02-12T13:27:23;102670.13;;;15.47;31.11
78123;BME280;67376;44.802;10.332;2023-02-12T13:30:21;102667.44;;;15.47;30.44
78123;BME280;67376;44.802;10.332;2023-02-12T13:35:25;102671.28;;;15.44;31.10
78123;BME280;67376;44.802;10.332;2023-02-12T13:37:54;102671.97;;;15.46;31.00
78123;BME280;67376;44.802;10.332;2023-02-12T13:40:24;102667.28;;;15.48;30.72
78123;BME280;67376;44.802;10.332;2023-02-12T13:42:58;102673.50;;;15.49;30.89
78123;BME280;67376;44.802;10.332;2023-02-12T13:45:58;102670.81;;;15.49;30.44
78123;BME280;67376;44.802;10.332;2023-02-12T13:51:40;102669.66;;;15.51;29.92
78123;BME280;67376;44.802;10.332;2023-02-12T13:57:01;102674.81;;;15.45;31.26
78123;BME280;67376;44.802;10.332;2023-02-12T14:04:27;102684.75;;;15.44;30.06
78123;BME280;67376;44.802;10.332;2023-02-12T14:07:05;102681.91;;;15.46;30.55
78123;BME280;67376;44.802;10.332;2023-02-12T14:14:54;102674.22;;;15.51;31.06
78123;BME280;67376;44.802;10.332;2023-02-12T14:24:56;102676.75;;;15.52;30.80
78123;BME280;67376;44.802;10.332;2023-02-12T14:27:35;102677.22;;;15.48;30.52
78123;BME280;67376;44.802;10.332;2023-02-12T14:30:23;102675.19;;;15.50;30.45
78123;BME280;67376;44.802;10.332;2023-02-12T14:35:36;102668.81;;;15.51;29.86
78123;BME280;67376;44.802;10.332;2023-02-12T14:38:03;102676.06;;;15.50;30.05
78123;BME280;67376;44.802;10.332;2023-02-12T14:40:48;102668.13;;;15.49;31.29
78123;BME280;67376;44.802;10.332;2023-02-12T14:43:35;102675.06;;;15.51;30.84
78123;BME280;67376;44.802;10.332;2023-02-12T14:48:54;102692.88;;;15.52;29.80
78123;BME280;67376;44.802;10.332;2023-02-12T14:53:52;102693.03;;;15.51;30.49
78123;BME280;67376;44.802;10.332;2023-02-12T14:56:22;102691.88;;;15.53;30.71
78123;BME280;67376;44.802;10.332;2023-02-12T14:58:49;102689.34;;;15.52;30.76
78123;BME280;67376;44.802;10.332;2023-02-12T15:01:16;102693.03;;;15.51;30.28
78123;BME280;67376;44.802;10.332;2023-02-12T15:03:49;102689.66;;;15.49;30.20
78123;BME280;67376;44.802;10.332;2023-02-12T15:06:31;102692.34;;;15.49;30.34
78123;BME280;67376;44.802;10.332;2023-02-12T15:09:20;102696.75;;;15.50;29.79
78123;BME280;67376;44.802;10.332;2023-02-12T15:11:57;102690.19;;;15.52;30.85